createdAt,value
2022-10-23T00:01:33.919Z,13.00
2022-10-23T00:04:01.462Z,12.60
2022-10-23T00:06:28.328Z,12.90
2022-10-23T00:08:55.144Z,12.23
2022-10-23T00:11:25.868Z,13.07
2022-10-23T00:13:53.664Z,12.40
2022-10-23T00:16:20.296Z,12.40
2022-10-23T00:18:47.065Z,13.07
2022-10-23T00:21:13.927Z,12.57
2022-10-23T00:23:40.763Z,12.90
2022-10-23T00:26:08.327Z,13.03
2022-10-23T00:28:35.163Z,12.87
2022-10-23T00:31:03.139Z,14.53
2022-10-23T00:33:30.138Z,14.53
2022-10-23T00:35:56.773Z,15.13
2022-10-23T00:38:23.421Z,15.20
2022-10-23T00:43:22.969Z,14.33
2022-10-23T00:45:49.646Z,15.60
2022-10-23T00:48:16.943Z,14.10
2022-10-23T00:50:43.798Z,13.93
2022-10-23T00:53:10.567Z,14.03
2022-10-23T00:55:38.505Z,13.80
2022-10-23T00:58:05.609Z,13.20
2022-10-23T01:00:41.038Z,14.27
2022-10-23T01:03:07.771Z,14.57
2022-10-23T01:05:41.761Z,15.10
2022-10-23T01:08:15.883Z,15.23
2022-10-23T01:10:47.346Z,14.97
2022-10-23T01:13:14.393Z,14.07
2022-10-23T01:15:45.220Z,13.90
2022-10-23T01:18:30.216Z,14.43
2022-10-23T01:20:59.944Z,14.53
2022-10-23T01:23:32.714Z,14.00
2022-10-23T01:26:19.811Z,14.70
2022-10-23T01:28:49.760Z,13.63
2022-10-23T01:31:19.063Z,14.97
2022-10-23T01:33:47.721Z,15.27
2022-10-23T01:39:07.818Z,16.37
2022-10-23T01:41:37.347Z,15.37
2022-10-23T01:44:28.089Z,16.53
2022-10-23T01:46:55.131Z,15.90
2022-10-23T01:49:21.809Z,17.63
2022-10-23T01:51:56.687Z,17.07
2022-10-23T01:54:24.517Z,17.67
2022-10-23T01:56:51.184Z,17.37
2022-10-23T01:59:23.466Z,17.77
2022-10-23T02:01:51.279Z,19.00
2022-10-23T02:04:19.590Z,18.80
2022-10-23T02:06:46.352Z,17.67
2022-10-23T02:09:13.051Z,18.43
2022-10-23T02:11:40.194Z,18.07
2022-10-23T02:14:27.084Z,18.03
2022-10-23T02:16:54.605Z,15.83
2022-10-23T02:19:21.885Z,17.83
2022-10-23T02:21:51.268Z,18.83
2022-10-23T02:24:19.053Z,19.20
2022-10-23T02:26:49.617Z,19.30
2022-10-23T02:29:21.576Z,19.33
2022-10-23T02:31:48.457Z,19.13
2022-10-23T02:34:16.528Z,19.37
2022-10-23T02:36:43.325Z,19.20
2022-10-23T02:39:09.950Z,17.73
2022-10-23T02:41:55.500Z,17.50
2022-10-23T02:44:22.878Z,17.10
2022-10-23T02:47:04.787Z,16.80
2022-10-23T02:49:31.553Z,17.53
2022-10-23T02:52:17.278Z,17.77
2022-10-23T02:54:46.718Z,15.93
2022-10-23T02:57:13.313Z,16.60
2022-10-23T02:59:52.710Z,17.37
2022-10-23T03:02:39.064Z,15.40
2022-10-23T03:05:07.330Z,14.90
2022-10-23T03:07:33.991Z,14.77
2022-10-23T03:10:05.982Z,14.77
2022-10-23T03:12:33.433Z,16.20
2022-10-23T03:15:00.028Z,15.80
2022-10-23T03:17:26.803Z,16.13
2022-10-23T03:19:57.301Z,15.17
2022-10-23T03:22:23.977Z,15.90
2022-10-23T03:24:50.613Z,15.73
2022-10-23T03:27:17.423Z,16.07
2022-10-23T03:29:44.059Z,16.77
2022-10-23T03:32:10.828Z,15.03
2022-10-23T03:34:37.955Z,15.20
2022-10-23T03:37:04.788Z,14.60
2022-10-23T03:39:31.387Z,15.30
2022-10-23T03:41:58.152Z,16.07
2022-10-23T03:44:24.787Z,14.90
2022-10-23T03:46:51.561Z,14.10
2022-10-23T03:49:18.251Z,14.40
2022-10-23T03:51:51.835Z,14.50
2022-10-23T03:54:21.637Z,14.50
2022-10-23T03:56:48.330Z,14.17
2022-10-23T03:59:14.962Z,14.77
2022-10-23T04:01:42.461Z,15.40
2022-10-23T04:04:09.232Z,16.77
2022-10-23T04:06:36.130Z,16.27
2022-10-23T04:09:04.229Z,15.77
2022-10-23T04:11:32.066Z,14.53
2022-10-23T04:13:58.707Z,14.23
2022-10-23T04:16:25.557Z,14.10
2022-10-23T04:18:52.249Z,14.07
2022-10-23T04:21:18.967Z,13.87
2022-10-23T04:23:45.675Z,14.37
2022-10-23T04:26:15.070Z,13.70
2022-10-23T04:28:41.780Z,13.37
2022-10-23T04:31:08.571Z,14.37
2022-10-23T04:33:35.200Z,14.03
2022-10-23T04:36:01.892Z,14.50
2022-10-23T04:38:28.551Z,15.43
2022-10-23T04:40:55.387Z,14.53
2022-10-23T04:43:22.586Z,14.77
2022-10-23T04:45:49.628Z,14.70
2022-10-23T04:48:16.919Z,15.17
2022-10-23T04:51:12.882Z,13.73
2022-10-23T04:53:51.857Z,15.33
2022-10-23T04:56:50.701Z,14.37
2022-10-23T04:59:20.761Z,14.80
2022-10-23T05:01:47.692Z,14.13
2022-10-23T05:04:14.473Z,14.70
2022-10-23T05:06:59.831Z,15.57
2022-10-23T05:09:36.896Z,16.47
2022-10-23T05:12:16.180Z,15.77
2022-10-23T05:14:42.926Z,15.37
2022-10-23T05:17:11.941Z,16.10
2022-10-23T05:19:40.532Z,15.20
2022-10-23T05:22:07.367Z,15.40
2022-10-23T05:24:54.526Z,15.03
2022-10-23T05:27:26.473Z,15.30
2022-10-23T05:29:54.779Z,15.23
2022-10-23T05:32:25.495Z,15.23
2022-10-23T05:34:53.154Z,15.13
2022-10-23T05:37:20.262Z,15.70
2022-10-23T05:39:47.405Z,14.97
2022-10-23T05:42:16.532Z,16.40
2022-10-23T05:44:43.492Z,14.90
2022-10-23T05:47:29.504Z,16.50
2022-10-23T05:50:12.444Z,14.10
2022-10-23T05:52:39.240Z,14.43
2022-10-23T05:55:26.149Z,15.17
2022-10-23T05:58:13.418Z,15.80
2022-10-23T06:01:09.549Z,16.67
2022-10-23T06:04:03.126Z,20.63
2022-10-23T06:06:59.050Z,22.10
2022-10-23T06:09:26.311Z,22.07
2022-10-23T06:11:57.104Z,22.43
2022-10-23T06:14:23.861Z,23.83
2022-10-23T06:16:51.916Z,23.60
2022-10-23T06:19:19.309Z,24.50
2022-10-23T06:21:49.078Z,26.23
2022-10-23T06:24:16.653Z,25.37
2022-10-23T06:26:48.863Z,26.40
2022-10-23T06:29:20.976Z,24.53
2022-10-23T06:31:49.813Z,23.80
2022-10-23T06:34:17.371Z,23.20
2022-10-23T06:36:45.922Z,22.80
2022-10-23T06:39:37.006Z,21.93
2022-10-23T06:42:10.200Z,21.27
2022-10-23T06:44:55.286Z,21.57
2022-10-23T06:47:51.819Z,22.07
2022-10-23T06:50:37.497Z,20.97
2022-10-23T06:53:09.310Z,20.07
2022-10-23T06:55:42.773Z,20.03
2022-10-23T06:58:11.044Z,19.73
2022-10-23T07:00:52.573Z,18.90
2022-10-23T07:03:19.390Z,19.33
2022-10-23T07:05:47.458Z,20.07
2022-10-23T07:08:15.343Z,18.67
2022-10-23T07:10:45.399Z,19.03
2022-10-23T07:13:12.694Z,18.50
2022-10-23T07:15:41.439Z,19.80
2022-10-23T07:18:18.059Z,19.80
2022-10-23T07:21:04.911Z,20.03
2022-10-23T07:23:32.396Z,20.07
2022-10-23T07:26:07.150Z,19.70
2022-10-23T07:28:34.711Z,21.03
2022-10-23T07:31:01.528Z,20.03
2022-10-23T07:33:49.121Z,20.47
2022-10-23T07:36:18.950Z,21.10
2022-10-23T07:38:45.766Z,21.50
2022-10-23T07:41:13.501Z,21.30
2022-10-23T07:43:40.418Z,21.50
2022-10-23T07:46:09.875Z,21.77
2022-10-23T07:48:39.231Z,21.97
2022-10-23T07:51:11.357Z,20.73
2022-10-23T07:53:44.276Z,22.30
2022-10-23T07:56:40.446Z,21.20
2022-10-23T08:02:13.695Z,21.30
2022-10-23T08:04:41.675Z,21.57
2022-10-23T08:07:22.098Z,21.13
2022-10-23T08:09:51.231Z,20.73
2022-10-23T08:12:17.966Z,19.77
2022-10-23T08:14:44.832Z,19.93
2022-10-23T08:20:11.130Z,16.77
2022-10-23T08:22:42.365Z,15.73
2022-10-23T08:25:10.220Z,18.07
2022-10-23T08:27:37.008Z,13.60
2022-10-23T08:30:04.355Z,14.47
2022-10-23T08:32:31.206Z,13.23
2022-10-23T08:34:59.865Z,12.80
2022-10-23T08:37:30.226Z,12.97
2022-10-23T08:39:57.311Z,12.43
2022-10-23T08:42:41.079Z,12.03
2022-10-23T08:45:11.731Z,10.90
2022-10-23T08:47:41.311Z,10.80
2022-10-23T08:52:59.549Z,9.60
2022-10-23T08:55:27.359Z,9.47
2022-10-23T08:58:17.547Z,9.60
2022-10-23T09:00:44.639Z,7.83
2022-10-23T09:03:12.131Z,6.80
2022-10-23T09:05:51.427Z,6.37
2022-10-23T09:08:26.636Z,7.10
2022-10-23T09:11:00.143Z,6.60
2022-10-23T09:13:46.215Z,6.03
2022-10-23T09:16:22.698Z,6.00
2022-10-23T09:18:49.555Z,6.57
2022-10-23T09:21:16.428Z,6.27
2022-10-23T09:23:44.048Z,6.33
2022-10-23T09:26:17.796Z,6.17
2022-10-23T09:28:57.803Z,5.83
2022-10-23T09:31:25.564Z,6.00
2022-10-23T09:33:59.179Z,6.60
2022-10-23T09:36:28.599Z,5.67
2022-10-23T09:38:56.501Z,5.60
2022-10-23T09:41:29.374Z,5.73
2022-10-23T09:44:09.356Z,5.60
2022-10-23T09:46:44.784Z,4.90
2022-10-23T09:49:38.295Z,5.50
2022-10-23T09:52:08.355Z,5.27
2022-10-23T09:54:38.256Z,4.70
2022-10-23T09:57:20.334Z,4.57
2022-10-23T09:59:53.682Z,4.17
2022-10-23T10:02:27.142Z,4.13
2022-10-23T10:05:23.837Z,4.50
2022-10-23T10:08:14.709Z,5.60
2022-10-23T10:10:45.726Z,5.10
2022-10-23T10:13:23.003Z,4.47
2022-10-23T10:15:51.029Z,4.30
2022-10-23T10:18:19.946Z,4.43
2022-10-23T10:20:58.435Z,4.70
2022-10-23T10:23:29.739Z,4.53
2022-10-23T10:26:04.237Z,5.10
2022-10-23T10:28:31.205Z,4.53
2022-10-23T10:31:01.216Z,4.20
2022-10-23T10:33:32.929Z,4.67
2022-10-23T10:36:02.849Z,4.50
2022-10-23T10:38:36.912Z,4.40
2022-10-23T10:41:11.892Z,4.30
2022-10-23T10:43:45.013Z,4.07
2022-10-23T10:46:21.162Z,3.97
2022-10-23T10:49:11.481Z,3.80
2022-10-23T10:52:09.443Z,3.90
2022-10-23T10:54:39.569Z,3.33
2022-10-23T10:57:09.577Z,3.80
2022-10-23T10:59:41.934Z,4.23
2022-10-23T11:02:12.926Z,3.60
2022-10-23T11:04:57.769Z,3.33
2022-10-23T11:07:25.883Z,3.70
2022-10-23T11:09:52.779Z,3.70
2022-10-23T11:12:20.937Z,3.40
2022-10-23T11:14:47.782Z,3.93
2022-10-23T11:17:17.089Z,3.80
2022-10-23T11:19:45.941Z,3.47
2022-10-23T11:22:27.284Z,3.70
2022-10-23T11:24:55.814Z,4.10
2022-10-23T11:27:25.141Z,4.00
2022-10-23T11:30:15.521Z,3.93
2022-10-23T11:32:55.753Z,4.00
2022-10-23T11:35:41.765Z,3.80
2022-10-23T11:38:21.492Z,3.40
2022-10-23T11:40:52.217Z,3.67
2022-10-23T11:43:33.579Z,3.37
2022-10-23T11:46:13.953Z,2.90
2022-10-23T11:48:41.588Z,2.70
2022-10-23T11:51:34.660Z,2.90
2022-10-23T11:54:10.268Z,2.77
2022-10-23T11:56:37.562Z,2.50
2022-10-23T11:59:24.635Z,8.27
2022-10-23T12:01:52.693Z,4.00
2022-10-23T12:04:24.322Z,3.67
2022-10-23T12:06:55.987Z,3.50
2022-10-23T12:09:25.848Z,3.00
2022-10-23T12:12:03.121Z,3.40
2022-10-23T12:14:31.411Z,2.60
2022-10-23T12:16:58.183Z,2.20
2022-10-23T12:19:26.801Z,2.63
2022-10-23T12:21:54.750Z,3.33
2022-10-23T12:24:24.946Z,2.10
2022-10-23T12:27:01.325Z,2.10
2022-10-23T12:29:31.252Z,2.70
2022-10-23T12:32:16.780Z,2.70
2022-10-23T12:34:56.815Z,2.17
2022-10-23T12:37:42.995Z,2.80
2022-10-23T12:40:10.284Z,4.30
2022-10-23T12:42:37.511Z,3.40
2022-10-23T12:45:10.874Z,2.60
2022-10-23T12:50:26.458Z,2.93
2022-10-23T12:53:03.467Z,2.30
2022-10-23T12:55:36.083Z,2.50
2022-10-23T12:58:03.199Z,3.60
2022-10-23T13:00:31.162Z,2.90
2022-10-23T13:02:58.956Z,2.47
2022-10-23T13:05:25.744Z,2.17
2022-10-23T13:07:52.561Z,2.03
2022-10-23T13:10:31.337Z,3.30
2022-10-23T13:13:04.926Z,2.30
2022-10-23T13:15:39.257Z,5.93
2022-10-23T13:18:07.158Z,2.10
2022-10-23T13:20:38.229Z,2.07
2022-10-23T13:23:08.136Z,2.10
2022-10-23T13:25:35.330Z,1.83
2022-10-23T13:28:04.932Z,2.60
2022-10-23T13:30:33.473Z,2.10
2022-10-23T13:33:00.964Z,2.90
2022-10-23T13:35:28.802Z,3.70
2022-10-23T13:37:56.434Z,3.50
2022-10-23T13:40:24.354Z,3.97
2022-10-23T13:42:51.710Z,2.70
2022-10-23T13:45:21.349Z,2.87
2022-10-23T13:47:48.202Z,2.00
2022-10-23T13:50:14.921Z,1.40
2022-10-23T13:52:41.941Z,1.87
2022-10-23T13:55:24.580Z,1.90
2022-10-23T13:57:51.788Z,1.70
2022-10-23T14:00:18.811Z,1.90
2022-10-23T14:02:45.746Z,1.43
2022-10-23T14:05:12.586Z,2.07
2022-10-23T14:07:39.404Z,2.87
2022-10-23T14:10:08.875Z,2.27
2022-10-23T14:12:42.450Z,1.90
2022-10-23T14:15:10.245Z,1.80
2022-10-23T14:17:37.665Z,1.63
2022-10-23T14:20:06.116Z,2.33
2022-10-23T14:22:34.834Z,1.93
2022-10-23T14:25:01.816Z,2.20
2022-10-23T14:27:30.189Z,1.77
2022-10-23T14:29:57.659Z,1.77
2022-10-23T14:32:24.916Z,1.80
2022-10-23T14:34:52.542Z,2.13
2022-10-23T14:37:19.722Z,2.00
2022-10-23T14:39:49.992Z,2.33
2022-10-23T14:42:17.563Z,2.90
2022-10-23T14:44:45.064Z,2.60
2022-10-23T14:47:12.220Z,2.93
2022-10-23T14:49:40.545Z,2.80
2022-10-23T14:52:07.850Z,2.83
2022-10-23T14:54:36.595Z,2.50
2022-10-23T14:57:05.131Z,3.13
2022-10-23T14:59:31.973Z,3.27
2022-10-23T15:01:58.860Z,4.33
2022-10-23T15:04:25.723Z,3.67
2022-10-23T15:06:56.292Z,4.17
2022-10-23T15:09:28.279Z,3.23
2022-10-23T15:11:55.675Z,6.00
2022-10-23T15:14:22.592Z,5.50
2022-10-23T15:16:49.743Z,6.73
2022-10-23T15:19:18.580Z,8.50
2022-10-23T15:21:46.539Z,8.73
2022-10-23T15:24:14.782Z,6.57
2022-10-23T15:26:45.050Z,6.23
2022-10-23T15:29:12.874Z,8.20
2022-10-23T15:31:44.124Z,7.43
2022-10-23T15:34:12.420Z,7.30
2022-10-23T15:36:39.441Z,7.03
2022-10-23T15:39:07.327Z,6.77
2022-10-23T15:41:34.484Z,7.10
2022-10-23T15:44:02.779Z,7.57
2022-10-23T15:46:29.747Z,6.33
2022-10-23T15:48:56.695Z,8.20
2022-10-23T15:51:23.619Z,7.60
2022-10-23T15:53:50.448Z,9.57
2022-10-23T15:56:17.429Z,9.03
2022-10-23T15:58:44.608Z,9.80
2022-10-23T16:01:11.575Z,9.17
2022-10-23T16:03:38.727Z,8.80
2022-10-23T16:06:06.435Z,17.63
2022-10-23T16:08:33.491Z,15.73
2022-10-23T16:11:00.732Z,15.57
2022-10-23T16:13:27.790Z,22.63
2022-10-23T16:15:54.895Z,19.73
2022-10-23T16:18:22.643Z,19.13
2022-10-23T16:20:51.254Z,17.63
2022-10-23T16:23:18.330Z,18.63
2022-10-23T16:25:46.655Z,16.93
2022-10-23T16:28:13.733Z,14.37
2022-10-23T16:30:41.360Z,16.90
2022-10-23T16:33:09.381Z,16.47
2022-10-23T16:35:40.104Z,18.57
2022-10-23T16:38:20.180Z,21.80
2022-10-23T16:40:53.747Z,16.13
2022-10-23T16:43:44.754Z,21.90
2022-10-23T16:46:30.316Z,21.33
2022-10-23T16:48:57.813Z,23.87
2022-10-23T16:51:25.925Z,30.40
2022-10-23T16:53:52.967Z,25.97
2022-10-23T16:56:24.237Z,26.07
2022-10-23T16:58:51.534Z,25.47
2022-10-23T17:01:19.816Z,22.53
2022-10-23T17:03:51.021Z,27.97
2022-10-23T17:06:19.192Z,34.27
2022-10-23T17:08:45.961Z,32.67
2022-10-23T17:14:08.557Z,23.17
2022-10-23T17:16:39.575Z,25.70
2022-10-23T17:19:20.674Z,23.07
2022-10-23T17:21:54.136Z,28.57
2022-10-23T17:24:23.325Z,23.00
2022-10-23T17:26:50.344Z,28.63
2022-10-23T17:29:17.289Z,24.33
2022-10-23T17:31:44.880Z,29.03
2022-10-23T17:34:13.146Z,33.33
2022-10-23T17:36:42.851Z,32.50
2022-10-23T17:39:10.446Z,31.80
2022-10-23T17:41:43.456Z,32.10
2022-10-23T17:44:12.142Z,33.30
2022-10-23T17:46:40.383Z,32.27
2022-10-23T17:49:08.472Z,32.27
2022-10-23T17:51:35.416Z,30.30
2022-10-23T17:54:09.074Z,25.57
2022-10-23T17:56:37.690Z,25.53
2022-10-23T17:59:05.869Z,26.13
2022-10-23T18:01:33.526Z,27.47
2022-10-23T18:04:02.550Z,28.83
2022-10-23T18:06:32.111Z,22.03
2022-10-23T18:09:03.130Z,24.93
2022-10-23T18:11:35.230Z,24.67
2022-10-23T18:14:02.607Z,21.60
2022-10-23T18:16:30.263Z,20.17
2022-10-23T18:18:58.738Z,22.07
2022-10-23T18:21:25.549Z,21.23
2022-10-23T18:23:52.313Z,21.10
2022-10-23T18:26:19.047Z,21.53
2022-10-23T18:28:46.366Z,20.73
2022-10-23T18:31:13.526Z,20.53
2022-10-23T18:33:40.651Z,20.97
2022-10-23T18:36:14.896Z,25.23
2022-10-23T18:38:42.370Z,20.97
2022-10-23T18:41:09.116Z,19.73
2022-10-23T18:43:43.625Z,20.43
2022-10-23T18:46:14.096Z,18.83
2022-10-23T18:48:41.218Z,18.80
2022-10-23T18:51:17.654Z,21.50
2022-10-23T18:53:46.841Z,21.33
2022-10-23T18:56:14.397Z,19.53
2022-10-23T18:58:41.192Z,38.37
2022-10-23T19:01:07.953Z,22.13
2022-10-23T19:03:34.826Z,24.17
2022-10-23T19:06:02.739Z,25.07
2022-10-23T19:08:29.630Z,20.70
2022-10-23T19:10:57.558Z,20.23
2022-10-23T19:13:24.425Z,20.67
2022-10-23T19:15:51.200Z,22.63
2022-10-23T19:18:18.074Z,18.27
2022-10-23T19:20:45.084Z,20.90
2022-10-23T19:23:15.283Z,28.67
2022-10-23T19:25:44.964Z,29.43
2022-10-23T19:28:11.937Z,22.17
2022-10-23T19:30:38.903Z,27.07
2022-10-23T19:33:05.607Z,26.97
2022-10-23T19:35:33.760Z,30.77
2022-10-23T19:38:04.087Z,33.43
2022-10-23T19:40:31.163Z,34.60
2022-10-23T19:42:58.591Z,39.63
2022-10-23T19:45:25.392Z,32.80
2022-10-23T19:47:52.189Z,32.73
2022-10-23T19:50:19.070Z,35.83
2022-10-23T19:52:46.562Z,31.70
2022-10-23T19:55:13.666Z,32.13
2022-10-23T19:57:40.568Z,26.70
2022-10-23T20:00:07.896Z,25.60
2022-10-23T20:02:37.958Z,23.73
2022-10-23T20:05:05.990Z,24.77
2022-10-23T20:07:33.537Z,27.00
2022-10-23T20:10:00.474Z,26.53
2022-10-23T20:12:27.204Z,22.90
2022-10-23T20:14:55.223Z,27.57
2022-10-23T20:17:22.338Z,27.40
2022-10-23T20:19:49.311Z,25.23
2022-10-23T20:22:16.834Z,26.83
2022-10-23T20:24:43.669Z,24.03
2022-10-23T20:27:10.446Z,23.20
2022-10-23T20:29:37.782Z,25.37
2022-10-23T20:32:04.530Z,26.67
2022-10-23T20:34:32.022Z,26.67
2022-10-23T20:36:58.746Z,27.77
2022-10-23T20:39:26.574Z,25.97
2022-10-23T20:41:55.456Z,26.00
2022-10-23T20:44:22.943Z,26.80
2022-10-23T20:46:51.065Z,29.03
2022-10-23T20:49:17.906Z,25.13
2022-10-23T20:51:45.221Z,26.47
2022-10-23T20:54:12.134Z,25.57
2022-10-23T20:56:38.977Z,26.70
2022-10-23T20:59:05.951Z,25.57
2022-10-23T21:01:32.916Z,25.87
2022-10-23T21:04:00.280Z,25.03
2022-10-23T21:06:33.966Z,24.97
2022-10-23T21:09:08.192Z,26.53
2022-10-23T21:11:35.199Z,31.10
2022-10-23T21:14:02.478Z,29.27
2022-10-23T21:16:36.090Z,45.67
2022-10-23T21:19:03.410Z,38.53
2022-10-23T21:21:30.119Z,41.80
2022-10-23T21:23:58.143Z,36.30
2022-10-23T21:26:24.966Z,36.87
2022-10-23T21:28:56.009Z,32.27
2022-10-23T21:31:33.662Z,30.40
2022-10-23T21:34:00.432Z,31.10
2022-10-23T21:36:29.147Z,35.17
2022-10-23T21:38:56.992Z,38.20
2022-10-23T21:41:26.901Z,33.17
2022-10-23T21:43:54.645Z,33.47
2022-10-23T21:46:21.348Z,37.53
2022-10-23T21:48:48.461Z,40.40
2022-10-23T21:51:21.966Z,32.07
2022-10-23T21:53:48.773Z,33.30
2022-10-23T21:56:31.643Z,36.00
2022-10-23T21:58:58.795Z,35.80
2022-10-23T22:01:25.640Z,35.60
2022-10-23T22:03:52.553Z,34.93
2022-10-23T22:06:20.171Z,38.90
2022-10-23T22:08:47.057Z,42.50
2022-10-23T22:11:13.920Z,38.57
2022-10-23T22:13:41.239Z,38.57
2022-10-23T22:16:08.068Z,36.87
2022-10-23T22:18:35.263Z,37.53
2022-10-23T22:21:05.680Z,34.27
2022-10-23T22:23:32.394Z,35.80
2022-10-23T22:25:59.140Z,36.13
2022-10-23T22:28:25.839Z,37.07
2022-10-23T22:30:52.585Z,37.60
2022-10-23T22:33:21.690Z,37.70
2022-10-23T22:35:48.302Z,35.33
2022-10-23T22:38:15.312Z,34.10
2022-10-23T22:40:46.371Z,32.53
2022-10-23T22:43:13.624Z,31.43
2022-10-23T22:45:40.250Z,31.23
2022-10-23T22:48:08.548Z,30.53
2022-10-23T22:50:35.239Z,30.80
2022-10-23T22:53:01.913Z,28.30
2022-10-23T22:55:28.621Z,31.73
2022-10-23T22:57:55.323Z,35.10
2022-10-23T23:00:21.942Z,33.60
2022-10-23T23:02:48.736Z,28.40
2022-10-23T23:05:15.465Z,27.17
2022-10-23T23:07:42.309Z,29.00
2022-10-23T23:10:09.358Z,26.67
2022-10-23T23:12:37.907Z,26.57
2022-10-23T23:15:04.831Z,24.70
2022-10-23T23:17:31.513Z,25.07
2022-10-23T23:19:58.172Z,24.93
2022-10-23T23:24:56.441Z,25.33
2022-10-23T23:27:23.014Z,25.53
2022-10-23T23:29:49.723Z,24.37
2022-10-23T23:32:16.346Z,26.80
2022-10-23T23:34:43.043Z,26.33
2022-10-23T23:37:09.639Z,25.97
2022-10-23T23:39:36.294Z,23.47
2022-10-23T23:42:02.890Z,22.83
2022-10-23T23:44:29.666Z,25.13
2022-10-23T23:46:56.309Z,24.63
2022-10-23T23:49:22.950Z,23.57
2022-10-23T23:51:50.084Z,22.77
2022-10-23T23:54:16.829Z,23.03
2022-10-23T23:56:43.460Z,25.53
2022-10-23T23:59:10.101Z,26.00
